sensor_id;sensor_type;location;lat;lon;timestamp;P1;durP1;ratioP1;P2;durP2;ratioP2
52974;SDS011;38839;45.186;5.720;2022-09-09T00:01:53;1.58;;;0.60;;
52974;SDS011;38839;45.186;5.720;2022-09-09T00:09:19;3.03;;;0.45;;
52974;SDS011;38839;45.186;5.720;2022-09-09T00:11:54;2.25;;;0.50;;
52974;SDS011;38839;45.186;5.720;2022-09-09T00:17:49;3.80;;;1.00;;
52974;SDS011;38839;45.186;5.720;2022-09-09T00:23:28;0.82;;;0.38;;
52974;SDS011;38839;45.186;5.720;2022-09-09T00:28:46;1.08;;;0.40;;
52974;SDS011;38839;45.186;5.720;2022-09-09T00:31:23;1.67;;;0.60;;
52974;SDS011;38839;45.186;5.720;2022-09-09T00:33:52;3.05;;;0.50;;
52974;SDS011;38839;45.186;5.720;2022-09-09T00:36:20;1.17;;;0.50;;
52974;SDS011;38839;45.186;5.720;2022-09-09T00:43:57;2.72;;;0.50;;
52974;SDS011;38839;45.186;5.720;2022-09-09T00:46:41;0.82;;;0.47;;
52974;SDS011;38839;45.186;5.720;2022-09-09T00:58:06;0.95;;;0.60;;
52974;SDS011;38839;45.186;5.720;2022-09-09T01:00:40;2.45;;;0.80;;
52974;SDS011;38839;45.186;5.720;2022-09-09T01:03:21;0.80;;;0.60;;
52974;SDS011;38839;45.186;5.720;2022-09-09T01:11:01;0.63;;;0.60;;
52974;SDS011;38839;45.186;5.720;2022-09-09T01:13:34;3.17;;;0.70;;
52974;SDS011;38839;45.186;5.720;2022-09-09T01:16:02;0.63;;;0.52;;
52974;SDS011;38839;45.186;5.720;2022-09-09T01:18:33;3.08;;;0.40;;
52974;SDS011;38839;45.186;5.720;2022-09-09T01:24:03;1.83;;;0.60;;
52974;SDS011;38839;45.186;5.720;2022-09-09T01:26:37;2.53;;;0.55;;
52974;SDS011;38839;45.186;5.720;2022-09-09T01:31:38;0.60;;;0.55;;
52974;SDS011;38839;45.186;5.720;2022-09-09T01:34:12;2.28;;;0.70;;
52974;SDS011;38839;45.186;5.720;2022-09-09T01:36:43;1.23;;;0.70;;
52974;SDS011;38839;45.186;5.720;2022-09-09T01:39:16;1.55;;;0.50;;
52974;SDS011;38839;45.186;5.720;2022-09-09T01:41:41;0.98;;;0.50;;
52974;SDS011;38839;45.186;5.720;2022-09-09T01:44:07;0.93;;;0.50;;
52974;SDS011;38839;45.186;5.720;2022-09-09T01:46:33;1.27;;;0.60;;
52974;SDS011;38839;45.186;5.720;2022-09-09T01:48:59;2.55;;;0.68;;
52974;SDS011;38839;45.186;5.720;2022-09-09T01:51:27;2.67;;;0.60;;
52974;SDS011;38839;45.186;5.720;2022-09-09T01:53:53;1.38;;;0.82;;
52974;SDS011;38839;45.186;5.720;2022-09-09T01:56:25;2.72;;;0.80;;
52974;SDS011;38839;45.186;5.720;2022-09-09T01:59:14;0.60;;;0.60;;
52974;SDS011;38839;45.186;5.720;2022-09-09T02:06:55;1.40;;;0.73;;
52974;SDS011;38839;45.186;5.720;2022-09-09T02:09:24;3.33;;;0.70;;
52974;SDS011;38839;45.186;5.720;2022-09-09T02:12:02;2.13;;;0.80;;
52974;SDS011;38839;45.186;5.720;2022-09-09T02:14:37;2.35;;;0.80;;
52974;SDS011;38839;45.186;5.720;2022-09-09T02:17:08;2.15;;;0.98;;
52974;SDS011;38839;45.186;5.720;2022-09-09T02:19:43;2.65;;;1.00;;
52974;SDS011;38839;45.186;5.720;2022-09-09T02:22:14;3.15;;;0.90;;
52974;SDS011;38839;45.186;5.720;2022-09-09T02:24:42;3.20;;;0.90;;
52974;SDS011;38839;45.186;5.720;2022-09-09T02:27:11;3.00;;;0.73;;
52974;SDS011;38839;45.186;5.720;2022-09-09T02:29:39;1.77;;;0.80;;
52974;SDS011;38839;45.186;5.720;2022-09-09T02:32:08;2.95;;;0.80;;
52974;SDS011;38839;45.186;5.720;2022-09-09T02:34:43;2.78;;;0.93;;
52974;SDS011;38839;45.186;5.720;2022-09-09T02:37:13;4.07;;;0.90;;
52974;SDS011;38839;45.186;5.720;2022-09-09T02:39:42;2.50;;;0.70;;
52974;SDS011;38839;45.186;5.720;2022-09-09T02:42:08;3.70;;;1.00;;
52974;SDS011;38839;45.186;5.720;2022-09-09T02:44:33;3.72;;;0.77;;
52974;SDS011;38839;45.186;5.720;2022-09-09T02:47:13;1.75;;;0.88;;
52974;SDS011;38839;45.186;5.720;2022-09-09T02:55:23;1.20;;;0.70;;
52974;SDS011;38839;45.186;5.720;2022-09-09T02:57:59;3.25;;;0.80;;
52974;SDS011;38839;45.186;5.720;2022-09-09T03:00:29;2.42;;;0.75;;
52974;SDS011;38839;45.186;5.720;2022-09-09T03:02:55;4.35;;;0.73;;
52974;SDS011;38839;45.186;5.720;2022-09-09T03:05:21;2.50;;;0.70;;
52974;SDS011;38839;45.186;5.720;2022-09-09T03:07:46;2.50;;;0.90;;
52974;SDS011;38839;45.186;5.720;2022-09-09T03:10:12;1.08;;;0.63;;
52974;SDS011;38839;45.186;5.720;2022-09-09T03:12:38;2.03;;;0.80;;
52974;SDS011;38839;45.186;5.720;2022-09-09T03:15:04;1.85;;;0.60;;
52974;SDS011;38839;45.186;5.720;2022-09-09T03:17:30;2.65;;;0.70;;
52974;SDS011;38839;45.186;5.720;2022-09-09T03:19:56;0.90;;;0.70;;
52974;SDS011;38839;45.186;5.720;2022-09-09T03:22:22;8.38;;;5.30;;
52974;SDS011;38839;45.186;5.720;2022-09-09T03:24:48;5.82;;;3.17;;
52974;SDS011;38839;45.186;5.720;2022-09-09T03:27:13;3.35;;;1.70;;
52974;SDS011;38839;45.186;5.720;2022-09-09T03:29:42;1.90;;;0.90;;
52974;SDS011;38839;45.186;5.720;2022-09-09T03:32:08;3.35;;;1.15;;
52974;SDS011;38839;45.186;5.720;2022-09-09T03:34:35;3.22;;;1.00;;
52974;SDS011;38839;45.186;5.720;2022-09-09T03:37:02;2.60;;;0.90;;
52974;SDS011;38839;45.186;5.720;2022-09-09T03:39:27;1.70;;;0.70;;
52974;SDS011;38839;45.186;5.720;2022-09-09T03:41:54;2.17;;;0.70;;
52974;SDS011;38839;45.186;5.720;2022-09-09T03:44:19;1.95;;;0.60;;
52974;SDS011;38839;45.186;5.720;2022-09-09T03:46:44;1.33;;;0.57;;
52974;SDS011;38839;45.186;5.720;2022-09-09T03:49:10;2.60;;;0.70;;
52974;SDS011;38839;45.186;5.720;2022-09-09T03:51:36;2.20;;;0.90;;
52974;SDS011;38839;45.186;5.720;2022-09-09T03:54:01;1.92;;;0.90;;
52974;SDS011;38839;45.186;5.720;2022-09-09T03:56:29;1.95;;;0.80;;
52974;SDS011;38839;45.186;5.720;2022-09-09T03:58:55;1.10;;;0.68;;
52974;SDS011;38839;45.186;5.720;2022-09-09T04:01:20;7.53;;;0.90;;
52974;SDS011;38839;45.186;5.720;2022-09-09T04:03:46;2.22;;;0.60;;
52974;SDS011;38839;45.186;5.720;2022-09-09T04:06:12;2.83;;;0.80;;
52974;SDS011;38839;45.186;5.720;2022-09-09T04:08:39;2.72;;;0.70;;
52974;SDS011;38839;45.186;5.720;2022-09-09T04:11:05;1.00;;;0.65;;
52974;SDS011;38839;45.186;5.720;2022-09-09T04:13:31;2.13;;;0.90;;
52974;SDS011;38839;45.186;5.720;2022-09-09T04:15:58;1.98;;;0.80;;
52974;SDS011;38839;45.186;5.720;2022-09-09T04:18:24;2.95;;;0.70;;
52974;SDS011;38839;45.186;5.720;2022-09-09T04:20:51;2.53;;;0.80;;
52974;SDS011;38839;45.186;5.720;2022-09-09T04:23:18;2.55;;;0.70;;
52974;SDS011;38839;45.186;5.720;2022-09-09T04:25:45;2.78;;;0.75;;
52974;SDS011;38839;45.186;5.720;2022-09-09T04:28:12;0.80;;;0.60;;
52974;SDS011;38839;45.186;5.720;2022-09-09T04:30:38;1.23;;;0.65;;
52974;SDS011;38839;45.186;5.720;2022-09-09T04:33:05;2.58;;;0.90;;
52974;SDS011;38839;45.186;5.720;2022-09-09T04:35:31;2.17;;;0.68;;
52974;SDS011;38839;45.186;5.720;2022-09-09T04:37:58;4.75;;;0.77;;
52974;SDS011;38839;45.186;5.720;2022-09-09T04:40:23;5.07;;;0.93;;
52974;SDS011;38839;45.186;5.720;2022-09-09T04:42:49;0.93;;;0.60;;
52974;SDS011;38839;45.186;5.720;2022-09-09T04:45:15;1.48;;;0.70;;
52974;SDS011;38839;45.186;5.720;2022-09-09T04:47:40;5.35;;;0.70;;
52974;SDS011;38839;45.186;5.720;2022-09-09T04:50:06;4.90;;;0.70;;
52974;SDS011;38839;45.186;5.720;2022-09-09T04:52:33;3.03;;;0.60;;
52974;SDS011;38839;45.186;5.720;2022-09-09T04:55:00;1.20;;;0.75;;
52974;SDS011;38839;45.186;5.720;2022-09-09T04:57:26;1.83;;;0.60;;
52974;SDS011;38839;45.186;5.720;2022-09-09T04:59:51;5.20;;;0.90;;
52974;SDS011;38839;45.186;5.720;2022-09-09T05:02:16;4.18;;;0.75;;
52974;SDS011;38839;45.186;5.720;2022-09-09T05:04:42;2.80;;;0.85;;
52974;SDS011;38839;45.186;5.720;2022-09-09T05:07:08;1.13;;;0.65;;
52974;SDS011;38839;45.186;5.720;2022-09-09T05:09:33;4.03;;;1.00;;
52974;SDS011;38839;45.186;5.720;2022-09-09T05:11:58;2.97;;;0.80;;
52974;SDS011;38839;45.186;5.720;2022-09-09T05:14:24;1.33;;;0.68;;
52974;SDS011;38839;45.186;5.720;2022-09-09T05:16:49;4.00;;;0.88;;
52974;SDS011;38839;45.186;5.720;2022-09-09T05:19:15;1.70;;;0.82;;
52974;SDS011;38839;45.186;5.720;2022-09-09T05:21:44;3.00;;;0.85;;
52974;SDS011;38839;45.186;5.720;2022-09-09T05:24:09;3.78;;;0.93;;
52974;SDS011;38839;45.186;5.720;2022-09-09T05:26:35;2.20;;;0.80;;
52974;SDS011;38839;45.186;5.720;2022-09-09T05:29:00;3.53;;;0.95;;
52974;SDS011;38839;45.186;5.720;2022-09-09T05:31:26;4.35;;;0.65;;
52974;SDS011;38839;45.186;5.720;2022-09-09T05:33:53;2.88;;;0.80;;
52974;SDS011;38839;45.186;5.720;2022-09-09T05:36:19;1.98;;;0.80;;
52974;SDS011;38839;45.186;5.720;2022-09-09T05:38:46;4.05;;;0.85;;
52974;SDS011;38839;45.186;5.720;2022-09-09T05:41:12;3.22;;;1.10;;
52974;SDS011;38839;45.186;5.720;2022-09-09T05:43:40;5.73;;;0.80;;
52974;SDS011;38839;45.186;5.720;2022-09-09T05:46:08;2.28;;;1.20;;
52974;SDS011;38839;45.186;5.720;2022-09-09T05:48:35;4.78;;;1.02;;
52974;SDS011;38839;45.186;5.720;2022-09-09T05:51:02;3.60;;;1.20;;
52974;SDS011;38839;45.186;5.720;2022-09-09T05:53:29;2.08;;;0.90;;
52974;SDS011;38839;45.186;5.720;2022-09-09T05:56:05;1.38;;;1.00;;
52974;SDS011;38839;45.186;5.720;2022-09-09T05:58:35;2.78;;;1.00;;
52974;SDS011;38839;45.186;5.720;2022-09-09T06:01:05;2.97;;;1.30;;
52974;SDS011;38839;45.186;5.720;2022-09-09T06:03:32;5.05;;;1.27;;
52974;SDS011;38839;45.186;5.720;2022-09-09T06:06:00;4.45;;;0.90;;
52974;SDS011;38839;45.186;5.720;2022-09-09T06:08:30;4.03;;;1.60;;
52974;SDS011;38839;45.186;5.720;2022-09-09T06:11:00;2.78;;;1.23;;
52974;SDS011;38839;45.186;5.720;2022-09-09T06:13:27;1.35;;;1.25;;
52974;SDS011;38839;45.186;5.720;2022-09-09T06:15:53;3.67;;;1.48;;
52974;SDS011;38839;45.186;5.720;2022-09-09T06:18:18;2.60;;;1.10;;
52974;SDS011;38839;45.186;5.720;2022-09-09T06:20:56;2.75;;;1.20;;
52974;SDS011;38839;45.186;5.720;2022-09-09T06:23:23;3.50;;;1.27;;
52974;SDS011;38839;45.186;5.720;2022-09-09T06:25:50;3.55;;;1.30;;
52974;SDS011;38839;45.186;5.720;2022-09-09T06:28:16;6.07;;;1.73;;
52974;SDS011;38839;45.186;5.720;2022-09-09T06:30:42;5.55;;;1.45;;
52974;SDS011;38839;45.186;5.720;2022-09-09T06:33:08;3.00;;;1.30;;
52974;SDS011;38839;45.186;5.720;2022-09-09T06:35:34;3.45;;;1.67;;
52974;SDS011;38839;45.186;5.720;2022-09-09T06:38:00;3.08;;;1.50;;
52974;SDS011;38839;45.186;5.720;2022-09-09T06:40:25;5.50;;;1.58;;
52974;SDS011;38839;45.186;5.720;2022-09-09T06:42:50;9.30;;;1.40;;
52974;SDS011;38839;45.186;5.720;2022-09-09T06:45:16;5.20;;;1.48;;
52974;SDS011;38839;45.186;5.720;2022-09-09T06:47:42;3.47;;;1.50;;
52974;SDS011;38839;45.186;5.720;2022-09-09T06:50:08;3.20;;;1.48;;
52974;SDS011;38839;45.186;5.720;2022-09-09T06:52:35;5.28;;;1.73;;
52974;SDS011;38839;45.186;5.720;2022-09-09T06:55:01;4.97;;;1.60;;
52974;SDS011;38839;45.186;5.720;2022-09-09T06:57:27;7.05;;;1.50;;
52974;SDS011;38839;45.186;5.720;2022-09-09T06:59:53;2.75;;;1.20;;
52974;SDS011;38839;45.186;5.720;2022-09-09T07:02:18;6.18;;;1.20;;
52974;SDS011;38839;45.186;5.720;2022-09-09T07:04:44;3.28;;;1.20;;
52974;SDS011;38839;45.186;5.720;2022-09-09T07:07:10;5.68;;;1.02;;
52974;SDS011;38839;45.186;5.720;2022-09-09T07:09:37;6.30;;;1.05;;
52974;SDS011;38839;45.186;5.720;2022-09-09T07:12:02;10.73;;;1.17;;
52974;SDS011;38839;45.186;5.720;2022-09-09T07:14:30;2.95;;;1.00;;
52974;SDS011;38839;45.186;5.720;2022-09-09T07:16:56;7.47;;;1.10;;
52974;SDS011;38839;45.186;5.720;2022-09-09T07:19:22;4.90;;;1.30;;
52974;SDS011;38839;45.186;5.720;2022-09-09T07:21:47;5.57;;;1.08;;
52974;SDS011;38839;45.186;5.720;2022-09-09T07:24:14;3.55;;;0.90;;
52974;SDS011;38839;45.186;5.720;2022-09-09T07:26:40;3.95;;;0.80;;
52974;SDS011;38839;45.186;5.720;2022-09-09T07:29:06;2.75;;;1.20;;
52974;SDS011;38839;45.186;5.720;2022-09-09T07:31:33;3.45;;;1.27;;
52974;SDS011;38839;45.186;5.720;2022-09-09T07:34:01;6.73;;;1.80;;
52974;SDS011;38839;45.186;5.720;2022-09-09T07:36:34;5.85;;;1.30;;
52974;SDS011;38839;45.186;5.720;2022-09-09T07:39:03;5.03;;;1.13;;
52974;SDS011;38839;45.186;5.720;2022-09-09T07:41:31;6.20;;;2.40;;
52974;SDS011;38839;45.186;5.720;2022-09-09T07:43:59;1.55;;;1.00;;
52974;SDS011;38839;45.186;5.720;2022-09-09T07:46:29;6.00;;;1.30;;
52974;SDS011;38839;45.186;5.720;2022-09-09T07:48:55;2.08;;;1.00;;
52974;SDS011;38839;45.186;5.720;2022-09-09T07:51:27;1.58;;;0.95;;
52974;SDS011;38839;45.186;5.720;2022-09-09T07:53:55;3.92;;;1.00;;
52974;SDS011;38839;45.186;5.720;2022-09-09T07:56:25;6.57;;;1.10;;
52974;SDS011;38839;45.186;5.720;2022-09-09T07:58:53;2.50;;;0.93;;
52974;SDS011;38839;45.186;5.720;2022-09-09T08:01:22;6.00;;;1.52;;
52974;SDS011;38839;45.186;5.720;2022-09-09T08:03:56;3.00;;;1.00;;
52974;SDS011;38839;45.186;5.720;2022-09-09T08:06:25;1.63;;;0.90;;
52974;SDS011;38839;45.186;5.720;2022-09-09T08:08:52;3.20;;;0.82;;
52974;SDS011;38839;45.186;5.720;2022-09-09T08:11:19;1.65;;;0.95;;
52974;SDS011;38839;45.186;5.720;2022-09-09T08:13:45;2.30;;;0.90;;
52974;SDS011;38839;45.186;5.720;2022-09-09T08:16:13;2.10;;;1.00;;
52974;SDS011;38839;45.186;5.720;2022-09-09T08:18:40;3.20;;;0.98;;
52974;SDS011;38839;45.186;5.720;2022-09-09T08:21:10;4.70;;;1.00;;
52974;SDS011;38839;45.186;5.720;2022-09-09T08:23:39;1.13;;;0.63;;
52974;SDS011;38839;45.186;5.720;2022-09-09T08:26:10;4.72;;;1.02;;
52974;SDS011;38839;45.186;5.720;2022-09-09T08:28:37;6.72;;;0.73;;
52974;SDS011;38839;45.186;5.720;2022-09-09T08:31:11;1.73;;;1.02;;
52974;SDS011;38839;45.186;5.720;2022-09-09T08:33:46;1.77;;;0.80;;
52974;SDS011;38839;45.186;5.720;2022-09-09T08:36:22;4.40;;;1.00;;
52974;SDS011;38839;45.186;5.720;2022-09-09T08:38:54;2.42;;;0.60;;
52974;SDS011;38839;45.186;5.720;2022-09-09T08:52:29;1.35;;;0.82;;
52974;SDS011;38839;45.186;5.720;2022-09-09T08:54:57;3.58;;;1.13;;
52974;SDS011;38839;45.186;5.720;2022-09-09T08:57:28;3.50;;;0.73;;
52974;SDS011;38839;45.186;5.720;2022-09-09T08:59:57;3.10;;;0.85;;
52974;SDS011;38839;45.186;5.720;2022-09-09T09:04:56;2.13;;;0.90;;
52974;SDS011;38839;45.186;5.720;2022-09-09T09:07:51;2.75;;;0.80;;
52974;SDS011;38839;45.186;5.720;2022-09-09T09:12:55;4.13;;;0.88;;
52974;SDS011;38839;45.186;5.720;2022-09-09T09:15:23;1.70;;;0.68;;
52974;SDS011;38839;45.186;5.720;2022-09-09T09:17:50;2.15;;;0.65;;
52974;SDS011;38839;45.186;5.720;2022-09-09T09:20:16;0.50;;;0.35;;
52974;SDS011;38839;45.186;5.720;2022-09-09T09:22:46;1.85;;;0.32;;
52974;SDS011;38839;45.186;5.720;2022-09-09T09:35:53;2.03;;;0.40;;
52974;SDS011;38839;45.186;5.720;2022-09-09T09:38:20;1.75;;;0.50;;
52974;SDS011;38839;45.186;5.720;2022-09-09T09:43:24;2.30;;;0.52;;
52974;SDS011;38839;45.186;5.720;2022-09-09T09:45:52;1.95;;;0.45;;
52974;SDS011;38839;45.186;5.720;2022-09-09T09:48:17;1.55;;;0.30;;
52974;SDS011;38839;45.186;5.720;2022-09-09T09:51:25;1.60;;;0.30;;
52974;SDS011;38839;45.186;5.720;2022-09-09T09:53:35;2.30;;;0.60;;
52974;SDS011;38839;45.186;5.720;2022-09-09T09:56:12;1.48;;;0.68;;
52974;SDS011;38839;45.186;5.720;2022-09-09T10:01:24;1.13;;;0.50;;
52974;SDS011;38839;45.186;5.720;2022-09-09T10:04:02;2.03;;;0.38;;
52974;SDS011;38839;45.186;5.720;2022-09-09T10:06:40;1.15;;;0.63;;
52974;SDS011;38839;45.186;5.720;2022-09-09T10:11:53;2.53;;;0.40;;
52974;SDS011;38839;45.186;5.720;2022-09-09T10:14:57;2.35;;;0.75;;
52974;SDS011;38839;45.186;5.720;2022-09-09T10:17:36;0.88;;;0.50;;
52974;SDS011;38839;45.186;5.720;2022-09-09T10:23:09;3.40;;;1.20;;
52974;SDS011;38839;45.186;5.720;2022-09-09T10:25:59;2.47;;;0.90;;
52974;SDS011;38839;45.186;5.720;2022-09-09T10:36:32;2.05;;;0.70;;
52974;SDS011;38839;45.186;5.720;2022-09-09T10:50:10;0.98;;;0.75;;
52974;SDS011;38839;45.186;5.720;2022-09-09T10:55:59;1.73;;;0.50;;
52974;SDS011;38839;45.186;5.720;2022-09-09T11:01:09;2.05;;;0.60;;
52974;SDS011;38839;45.186;5.720;2022-09-09T11:03:40;3.80;;;0.77;;
52974;SDS011;38839;45.186;5.720;2022-09-09T11:06:21;2.03;;;0.60;;
52974;SDS011;38839;45.186;5.720;2022-09-09T11:08:53;1.23;;;0.40;;
52974;SDS011;38839;45.186;5.720;2022-09-09T11:11:36;1.02;;;0.70;;
52974;SDS011;38839;45.186;5.720;2022-09-09T11:19:49;2.03;;;0.90;;
52974;SDS011;38839;45.186;5.720;2022-09-09T11:22:16;2.10;;;0.50;;
52974;SDS011;38839;45.186;5.720;2022-09-09T11:30:04;3.75;;;0.80;;
52974;SDS011;38839;45.186;5.720;2022-09-09T11:40:45;0.95;;;0.60;;
52974;SDS011;38839;45.186;5.720;2022-09-09T11:43:17;1.83;;;0.60;;
52974;SDS011;38839;45.186;5.720;2022-09-09T11:45:53;1.48;;;0.50;;
52974;SDS011;38839;45.186;5.720;2022-09-09T11:48:42;1.65;;;0.60;;
52974;SDS011;38839;45.186;5.720;2022-09-09T11:53:48;1.17;;;0.77;;
52974;SDS011;38839;45.186;5.720;2022-09-09T12:12:30;4.70;;;0.70;;
52974;SDS011;38839;45.186;5.720;2022-09-09T12:17:25;1.77;;;1.13;;
52974;SDS011;38839;45.186;5.720;2022-09-09T12:20:09;1.35;;;0.90;;
52974;SDS011;38839;45.186;5.720;2022-09-09T12:22:55;1.35;;;0.40;;
52974;SDS011;38839;45.186;5.720;2022-09-09T12:30:36;1.98;;;0.50;;
52974;SDS011;38839;45.186;5.720;2022-09-09T12:33:22;0.88;;;0.50;;
52974;SDS011;38839;45.186;5.720;2022-09-09T12:35:53;1.30;;;0.47;;
52974;SDS011;38839;45.186;5.720;2022-09-09T12:38:27;0.40;;;0.30;;
52974;SDS011;38839;45.186;5.720;2022-09-09T12:41:03;1.70;;;0.65;;
52974;SDS011;38839;45.186;5.720;2022-09-09T12:43:29;0.90;;;0.40;;
52974;SDS011;38839;45.186;5.720;2022-09-09T12:45:58;0.75;;;0.30;;
52974;SDS011;38839;45.186;5.720;2022-09-09T12:48:37;0.50;;;0.40;;
52974;SDS011;38839;45.186;5.720;2022-09-09T12:51:19;1.50;;;0.50;;
52974;SDS011;38839;45.186;5.720;2022-09-09T12:53:50;0.70;;;0.40;;
52974;SDS011;38839;45.186;5.720;2022-09-09T12:56:23;1.25;;;0.40;;
52974;SDS011;38839;45.186;5.720;2022-09-09T12:58:54;0.80;;;0.40;;
52974;SDS011;38839;45.186;5.720;2022-09-09T13:01:28;4.10;;;0.32;;
52974;SDS011;38839;45.186;5.720;2022-09-09T13:03:58;1.83;;;0.32;;
52974;SDS011;38839;45.186;5.720;2022-09-09T13:06:28;0.45;;;0.20;;
52974;SDS011;38839;45.186;5.720;2022-09-09T13:08:55;2.25;;;0.40;;
52974;SDS011;38839;45.186;5.720;2022-09-09T13:13:53;2.10;;;0.50;;
52974;SDS011;38839;45.186;5.720;2022-09-09T13:16:25;0.63;;;0.30;;
52974;SDS011;38839;45.186;5.720;2022-09-09T13:18:57;0.85;;;0.32;;
52974;SDS011;38839;45.186;5.720;2022-09-09T13:21:31;0.45;;;0.30;;
52974;SDS011;38839;45.186;5.720;2022-09-09T13:24:03;1.15;;;0.38;;
52974;SDS011;38839;45.186;5.720;2022-09-09T13:26:59;0.73;;;0.50;;
52974;SDS011;38839;45.186;5.720;2022-09-09T13:29:29;0.85;;;0.40;;
52974;SDS011;38839;45.186;5.720;2022-09-09T13:34:50;3.08;;;0.40;;
52974;SDS011;38839;45.186;5.720;2022-09-09T13:37:22;0.50;;;0.30;;
52974;SDS011;38839;45.186;5.720;2022-09-09T13:39:55;0.93;;;0.30;;
52974;SDS011;38839;45.186;5.720;2022-09-09T13:42:28;1.02;;;0.40;;
52974;SDS011;38839;45.186;5.720;2022-09-09T13:44:56;1.10;;;0.40;;
52974;SDS011;38839;45.186;5.720;2022-09-09T13:47:43;0.82;;;0.35;;
52974;SDS011;38839;45.186;5.720;2022-09-09T13:50:24;0.20;;;0.20;;
52974;SDS011;38839;45.186;5.720;2022-09-09T13:52:52;0.90;;;0.30;;
52974;SDS011;38839;45.186;5.720;2022-09-09T13:55:19;0.68;;;0.28;;
52974;SDS011;38839;45.186;5.720;2022-09-09T13:58:02;0.77;;;0.30;;
52974;SDS011;38839;45.186;5.720;2022-09-09T14:00:30;0.28;;;0.20;;
52974;SDS011;38839;45.186;5.720;2022-09-09T14:02:58;2.45;;;0.43;;
52974;SDS011;38839;45.186;5.720;2022-09-09T14:05:26;0.73;;;0.30;;
52974;SDS011;38839;45.186;5.720;2022-09-09T14:07:52;1.80;;;0.40;;
52974;SDS011;38839;45.186;5.720;2022-09-09T14:10:18;1.75;;;0.40;;
52974;SDS011;38839;45.186;5.720;2022-09-09T14:12:43;1.13;;;0.40;;
52974;SDS011;38839;45.186;5.720;2022-09-09T14:15:09;1.35;;;0.40;;
52974;SDS011;38839;45.186;5.720;2022-09-09T14:17:36;0.47;;;0.22;;
52974;SDS011;38839;45.186;5.720;2022-09-09T14:20:05;0.68;;;0.38;;
52974;SDS011;38839;45.186;5.720;2022-09-09T14:22:35;1.02;;;0.40;;
52974;SDS011;38839;45.186;5.720;2022-09-09T14:25:02;2.25;;;0.30;;
52974;SDS011;38839;45.186;5.720;2022-09-09T14:27:28;0.47;;;0.30;;
52974;SDS011;38839;45.186;5.720;2022-09-09T14:29:53;0.45;;;0.20;;
52974;SDS011;38839;45.186;5.720;2022-09-09T14:32:19;2.00;;;0.28;;
52974;SDS011;38839;45.186;5.720;2022-09-09T14:34:44;0.50;;;0.30;;
52974;SDS011;38839;45.186;5.720;2022-09-09T14:37:10;0.40;;;0.30;;
52974;SDS011;38839;45.186;5.720;2022-09-09T14:39:35;0.20;;;0.20;;
52974;SDS011;38839;45.186;5.720;2022-09-09T14:42:01;1.63;;;0.57;;
52974;SDS011;38839;45.186;5.720;2022-09-09T14:44:27;1.35;;;0.20;;
52974;SDS011;38839;45.186;5.720;2022-09-09T14:46:52;1.88;;;0.50;;
52974;SDS011;38839;45.186;5.720;2022-09-09T14:49:19;1.60;;;0.40;;
52974;SDS011;38839;45.186;5.720;2022-09-09T14:51:44;0.68;;;0.40;;
52974;SDS011;38839;45.186;5.720;2022-09-09T14:54:10;1.30;;;0.30;;
52974;SDS011;38839;45.186;5.720;2022-09-09T14:56:35;0.90;;;0.43;;
52974;SDS011;38839;45.186;5.720;2022-09-09T14:59:01;0.57;;;0.20;;
52974;SDS011;38839;45.186;5.720;2022-09-09T15:01:27;1.05;;;0.40;;
52974;SDS011;38839;45.186;5.720;2022-09-09T15:03:55;1.05;;;0.40;;
52974;SDS011;38839;45.186;5.720;2022-09-09T15:06:23;1.10;;;0.40;;
52974;SDS011;38839;45.186;5.720;2022-09-09T15:08:50;0.47;;;0.28;;
52974;SDS011;38839;45.186;5.720;2022-09-09T15:11:17;1.13;;;0.30;;
52974;SDS011;38839;45.186;5.720;2022-09-09T15:13:43;1.02;;;0.40;;
52974;SDS011;38839;45.186;5.720;2022-09-09T15:16:13;1.15;;;0.45;;
52974;SDS011;38839;45.186;5.720;2022-09-09T15:18:40;1.08;;;0.38;;
52974;SDS011;38839;45.186;5.720;2022-09-09T15:21:08;0.82;;;0.30;;
52974;SDS011;38839;45.186;5.720;2022-09-09T15:23:37;1.75;;;0.32;;
52974;SDS011;38839;45.186;5.720;2022-09-09T15:26:02;0.50;;;0.32;;
52974;SDS011;38839;45.186;5.720;2022-09-09T15:28:29;0.40;;;0.30;;
52974;SDS011;38839;45.186;5.720;2022-09-09T15:30:56;0.50;;;0.32;;
52974;SDS011;38839;45.186;5.720;2022-09-09T15:33:22;0.90;;;0.45;;
52974;SDS011;38839;45.186;5.720;2022-09-09T15:35:48;0.43;;;0.40;;
52974;SDS011;38839;45.186;5.720;2022-09-09T15:38:14;1.75;;;0.30;;
52974;SDS011;38839;45.186;5.720;2022-09-09T15:40:41;0.60;;;0.25;;
52974;SDS011;38839;45.186;5.720;2022-09-09T15:43:07;0.85;;;0.30;;
52974;SDS011;38839;45.186;5.720;2022-09-09T15:45:34;0.88;;;0.32;;
52974;SDS011;38839;45.186;5.720;2022-09-09T15:48:00;1.55;;;0.30;;
52974;SDS011;38839;45.186;5.720;2022-09-09T15:50:26;1.95;;;0.50;;
52974;SDS011;38839;45.186;5.720;2022-09-09T15:52:51;0.45;;;0.40;;
52974;SDS011;38839;45.186;5.720;2022-09-09T15:55:18;0.63;;;0.40;;
52974;SDS011;38839;45.186;5.720;2022-09-09T15:57:45;0.80;;;0.40;;
52974;SDS011;38839;45.186;5.720;2022-09-09T16:00:12;0.80;;;0.40;;
52974;SDS011;38839;45.186;5.720;2022-09-09T16:02:38;1.52;;;0.43;;
52974;SDS011;38839;45.186;5.720;2022-09-09T16:05:04;1.17;;;0.43;;
52974;SDS011;38839;45.186;5.720;2022-09-09T16:07:30;0.55;;;0.30;;
52974;SDS011;38839;45.186;5.720;2022-09-09T16:09:56;1.10;;;0.60;;
52974;SDS011;38839;45.186;5.720;2022-09-09T16:12:21;0.80;;;0.50;;
52974;SDS011;38839;45.186;5.720;2022-09-09T16:14:46;1.67;;;1.08;;
52974;SDS011;38839;45.186;5.720;2022-09-09T16:17:12;0.50;;;0.30;;
52974;SDS011;38839;45.186;5.720;2022-09-09T16:19:39;1.15;;;0.40;;
52974;SDS011;38839;45.186;5.720;2022-09-09T16:22:04;2.58;;;0.68;;
52974;SDS011;38839;45.186;5.720;2022-09-09T16:24:31;2.08;;;0.60;;
52974;SDS011;38839;45.186;5.720;2022-09-09T16:26:57;2.65;;;0.40;;
52974;SDS011;38839;45.186;5.720;2022-09-09T16:29:23;1.17;;;0.40;;
52974;SDS011;38839;45.186;5.720;2022-09-09T16:31:52;2.17;;;0.60;;
52974;SDS011;38839;45.186;5.720;2022-09-09T16:34:18;1.08;;;0.30;;
52974;SDS011;38839;45.186;5.720;2022-09-09T16:36:45;1.08;;;0.40;;
52974;SDS011;38839;45.186;5.720;2022-09-09T16:39:12;1.65;;;0.45;;
52974;SDS011;38839;45.186;5.720;2022-09-09T16:41:39;1.67;;;0.70;;
52974;SDS011;38839;45.186;5.720;2022-09-09T16:44:07;0.95;;;0.47;;
52974;SDS011;38839;45.186;5.720;2022-09-09T16:46:35;0.85;;;0.50;;
52974;SDS011;38839;45.186;5.720;2022-09-09T16:49:04;1.63;;;0.52;;
52974;SDS011;38839;45.186;5.720;2022-09-09T16:51:35;1.10;;;0.73;;
52974;SDS011;38839;45.186;5.720;2022-09-09T16:54:06;2.03;;;0.60;;
52974;SDS011;38839;45.186;5.720;2022-09-09T16:56:33;2.40;;;0.65;;
52974;SDS011;38839;45.186;5.720;2022-09-09T16:59:07;3.38;;;0.75;;
52974;SDS011;38839;45.186;5.720;2022-09-09T17:01:40;1.35;;;0.70;;
52974;SDS011;38839;45.186;5.720;2022-09-09T17:04:08;11.10;;;1.58;;
52974;SDS011;38839;45.186;5.720;2022-09-09T17:06:38;1.67;;;0.80;;
52974;SDS011;38839;45.186;5.720;2022-09-09T17:09:08;1.63;;;0.90;;
52974;SDS011;38839;45.186;5.720;2022-09-09T17:11:35;1.88;;;0.63;;
52974;SDS011;38839;45.186;5.720;2022-09-09T17:14:02;1.80;;;0.90;;
52974;SDS011;38839;45.186;5.720;2022-09-09T17:16:29;1.23;;;0.60;;
52974;SDS011;38839;45.186;5.720;2022-09-09T17:18:57;1.80;;;0.80;;
52974;SDS011;38839;45.186;5.720;2022-09-09T17:21:25;1.92;;;0.80;;
52974;SDS011;38839;45.186;5.720;2022-09-09T17:23:51;1.00;;;0.70;;
52974;SDS011;38839;45.186;5.720;2022-09-09T17:26:18;2.00;;;0.80;;
52974;SDS011;38839;45.186;5.720;2022-09-09T17:28:46;3.78;;;1.45;;
52974;SDS011;38839;45.186;5.720;2022-09-09T17:31:13;1.85;;;0.90;;
52974;SDS011;38839;45.186;5.720;2022-09-09T17:33:41;1.75;;;0.93;;
52974;SDS011;38839;45.186;5.720;2022-09-09T17:36:10;3.70;;;1.50;;
52974;SDS011;38839;45.186;5.720;2022-09-09T17:38:36;1.92;;;1.10;;
52974;SDS011;38839;45.186;5.720;2022-09-09T17:43:39;2.60;;;1.10;;
52974;SDS011;38839;45.186;5.720;2022-09-09T17:46:47;2.33;;;0.90;;